Estación Meteorológica Peña el Pijo (Robertgarden) [ 10/21/18 15:28:40 CEST ]

Fecha Hora Presion(HPa) Temp (°C) Humedad % Rocio (°C) Viento ( m/s) Direccion Lluvia 1Hora(mm) Lluvia 24H(mm) LLuvia Total(mm)
2017-Dec-25 01:01:48 1016.000 -2.4 83 -4.9         21.23
2017-Dec-25 02:04:02 1015.300 -3.0 84 -5.4         21.23
2017-Dec-25 03:10:09 1015.100 -2.8 84 -5.2         21.23
2017-Dec-25 04:01:40 1014.800 -3.5 84 -5.8         21.23
2017-Dec-25 05:01:43 1014.100 -3.8 84 -6.1         21.23
2017-Dec-25 06:01:42 1014.000 -3.6 85 -5.8         21.23
2017-Dec-25 07:01:47 1014.000 -3.8 84 -6.1         21.23
2017-Dec-25 08:01:51 1013.800 -4.7 85 -6.8         21.23
2017-Dec-25 09:01:51 1014.100 -4.9 85 -7.1         21.23
2017-Dec-25 10:01:50 1014.100 0.7 87 -1.2         21.23
2017-Dec-25 11:02:03 1013.900 7.9 84 5.4         21.23
2017-Dec-25 12:01:54 1013.700 9.8 67 3.9         21.23
2017-Dec-25 13:01:49 1012.700 10.3 59 2.6         21.23
2017-Dec-25 14:01:50 1011.800 10.9 55 2.2         21.23
2017-Dec-25 15:01:48 1011.300 12.3 51 2.4 0.8 NW     21.23
2017-Dec-25 16:01:54 1011.200 9.5 53 0.4 2.2 WNW     21.23
2017-Dec-25 17:01:44 1011.400 8.1 59 0.5         21.23
2017-Dec-25 18:01:49 1011.300 6.6 63 0.0         21.23
2017-Dec-25 19:01:44 1011.500 4.2 68 -1.2         21.23
2017-Dec-25 20:01:48 1011.500 4.2 72 -0.4         21.23
2017-Dec-25 21:01:53 1011.400 4.8 74 0.5         21.23
2017-Dec-25 22:02:01 1011.200 5.9 77 2.2         21.23
2017-Dec-25 23:01:46 1011.000 6.4 74 2.1 1.6 WNW     21.23

Temperatura Máxima:12°    Temperatura Mínima:-4°
Presión Máxima:1016.000 Hpa    Presión Mínima:1011.000 Hpa


Volver